createdAt,value
2022-12-19T00:01:36.811Z,-8.00
2022-12-19T00:04:08.216Z,-8.00
2022-12-19T00:06:36.469Z,-8.00
2022-12-19T00:09:04.079Z,-8.00
2022-12-19T00:11:31.165Z,-8.00
2022-12-19T00:13:59.478Z,-8.10
2022-12-19T00:16:29.094Z,-8.10
2022-12-19T00:19:00.055Z,-8.10
2022-12-19T00:21:29.169Z,-8.20
2022-12-19T00:23:57.054Z,-8.10
2022-12-19T00:26:31.745Z,-8.20
2022-12-19T00:29:06.767Z,-8.20
2022-12-19T00:31:38.032Z,-8.20
2022-12-19T00:34:05.374Z,-8.10
2022-12-19T00:36:34.325Z,-8.00
2022-12-19T00:39:07.724Z,-8.00
2022-12-19T00:41:38.733Z,-8.10
2022-12-19T00:44:12.382Z,-8.20
2022-12-19T00:46:39.279Z,-8.20
2022-12-19T00:49:06.849Z,-8.20
2022-12-19T00:51:36.662Z,-8.20
2022-12-19T00:54:06.661Z,-8.10
2022-12-19T00:56:37.893Z,-8.10
2022-12-19T00:59:06.305Z,-8.10
2022-12-19T01:01:37.096Z,-8.20
2022-12-19T01:06:53.215Z,-8.20
2022-12-19T01:09:22.147Z,-8.20
2022-12-19T01:12:07.380Z,-8.40
2022-12-19T01:14:34.677Z,-8.20
2022-12-19T01:17:01.531Z,-8.30
2022-12-19T01:21:56.507Z,-8.30
2022-12-19T01:44:06.787Z,-8.00
2022-12-19T01:46:37.243Z,-8.10
2022-12-19T01:49:06.219Z,-8.10
2022-12-19T01:51:41.320Z,-8.10
2022-12-19T01:54:15.664Z,-8.00
2022-12-19T01:56:47.575Z,-8.20
2022-12-19T01:59:23.277Z,-8.20
2022-12-19T02:01:57.233Z,-8.20
2022-12-19T02:04:30.963Z,-10.10
2022-12-19T02:07:06.305Z,-8.40
2022-12-19T02:17:26.670Z,-8.20
2022-12-19T02:20:24.005Z,-8.20
2022-12-19T02:23:18.561Z,-8.10
2022-12-19T02:26:01.475Z,-8.10
2022-12-19T02:28:47.871Z,-8.10
2022-12-19T02:33:47.305Z,-8.00
2022-12-19T02:36:21.910Z,-8.20
2022-12-19T02:38:56.878Z,-8.00
2022-12-19T02:41:29.484Z,-8.00
2022-12-19T02:43:59.217Z,-7.90
2022-12-19T02:46:28.694Z,-7.90
2022-12-19T02:59:06.638Z,-7.90
2022-12-19T03:01:45.489Z,-8.30
2022-12-19T03:04:45.577Z,-7.00
2022-12-19T03:07:21.740Z,-8.00
2022-12-19T03:10:09.054Z,-8.10
2022-12-19T03:12:50.371Z,-8.00
2022-12-19T03:20:26.106Z,-8.00
2022-12-19T03:25:22.503Z,-4.40
2022-12-19T03:27:52.361Z,-8.00
2022-12-19T03:32:48.319Z,-8.00
2022-12-19T03:35:22.981Z,-8.00
2022-12-19T03:37:52.436Z,-8.00
2022-12-19T03:40:24.654Z,-8.00
2022-12-19T03:43:09.642Z,-8.00
2022-12-19T03:45:59.933Z,-7.90
2022-12-19T03:48:47.316Z,-7.90
2022-12-19T03:51:38.181Z,-7.70
2022-12-19T03:54:15.884Z,-7.70
2022-12-19T03:56:56.197Z,-7.80
2022-12-19T03:59:36.823Z,-7.90
2022-12-19T04:02:05.215Z,-7.80
2022-12-19T04:04:38.481Z,-7.90
2022-12-19T04:07:07.779Z,-7.80
2022-12-19T04:09:37.533Z,-7.90
2022-12-19T04:12:10.156Z,-7.90
2022-12-19T04:14:39.165Z,-7.90
2022-12-19T04:17:13.344Z,-7.80
2022-12-19T04:20:05.804Z,-7.80
2022-12-19T04:22:54.623Z,-7.80
2022-12-19T04:25:31.040Z,-7.70
2022-12-19T04:28:03.275Z,-7.70
2022-12-19T04:30:30.689Z,-7.60
2022-12-19T04:33:04.402Z,-7.60
2022-12-19T04:35:31.742Z,-7.60
2022-12-19T04:37:59.212Z,-7.60
2022-12-19T04:40:26.090Z,-7.50
2022-12-19T04:42:53.269Z,-7.50
2022-12-19T04:45:20.220Z,-7.50
2022-12-19T04:47:47.851Z,-7.40
2022-12-19T04:50:14.969Z,-7.40
2022-12-19T04:52:41.709Z,-7.40
2022-12-19T04:55:09.670Z,-7.40
2022-12-19T04:57:36.468Z,-7.40
2022-12-19T05:00:07.560Z,-7.30
2022-12-19T05:02:38.156Z,-7.40
2022-12-19T05:05:06.009Z,-7.50
2022-12-19T05:07:32.895Z,-7.40
2022-12-19T05:10:00.132Z,-7.30
2022-12-19T05:12:29.156Z,-7.40
2022-12-19T05:14:56.534Z,-7.40
2022-12-19T05:17:23.338Z,-7.30
2022-12-19T05:22:17.598Z,-5.10
2022-12-19T05:24:45.765Z,-7.30
2022-12-19T05:27:15.537Z,-7.20
2022-12-19T05:29:42.328Z,-7.20
2022-12-19T05:32:09.202Z,-7.20
2022-12-19T05:34:38.597Z,-7.20
2022-12-19T05:37:05.827Z,-7.20
2022-12-19T05:39:32.574Z,-7.20
2022-12-19T05:44:26.941Z,-7.10
2022-12-19T05:51:53.500Z,-7.00
2022-12-19T05:54:20.309Z,-7.00
2022-12-19T05:56:47.137Z,-7.10
2022-12-19T05:59:14.485Z,-7.10
2022-12-19T06:09:05.725Z,-7.00
2022-12-19T06:11:32.649Z,-7.10
2022-12-19T06:13:59.773Z,-7.00
2022-12-19T06:18:55.636Z,-6.80
2022-12-19T06:21:23.289Z,-6.80
2022-12-19T06:23:51.169Z,-6.80
2022-12-19T06:26:20.538Z,-6.70
2022-12-19T06:28:49.668Z,-6.80
2022-12-19T06:36:24.471Z,-6.70
2022-12-19T06:38:51.859Z,-6.60
2022-12-19T06:41:38.846Z,-6.60
2022-12-19T06:46:35.525Z,-6.40
2022-12-19T06:49:02.459Z,-6.50
2022-12-19T06:51:29.860Z,-6.40
2022-12-19T06:53:57.319Z,-6.40
2022-12-19T06:56:24.850Z,-6.40
2022-12-19T06:58:52.271Z,-6.40
2022-12-19T07:01:46.300Z,-6.30
2022-12-19T07:04:18.279Z,-6.40
2022-12-19T07:06:49.200Z,-6.30
2022-12-19T07:09:17.119Z,-6.10
2022-12-19T07:11:44.420Z,-6.20
2022-12-19T07:16:38.552Z,-6.30
2022-12-19T07:19:07.232Z,-6.20
2022-12-19T07:21:36.398Z,-6.10
2022-12-19T07:24:04.740Z,-6.10
2022-12-19T07:26:32.526Z,-6.10
2022-12-19T07:29:00.214Z,-6.00
2022-12-19T07:31:27.020Z,-6.00
2022-12-19T07:36:21.637Z,-5.80
2022-12-19T07:38:48.399Z,-5.80
2022-12-19T07:41:15.576Z,-5.80
2022-12-19T07:43:42.351Z,-5.60
2022-12-19T07:46:09.235Z,-5.60
2022-12-19T07:48:36.015Z,-5.40
2022-12-19T07:51:05.920Z,-5.30
2022-12-19T07:53:32.989Z,-5.30
2022-12-19T07:55:59.871Z,-4.40
2022-12-19T07:58:26.651Z,-5.20
2022-12-19T08:00:57.927Z,-5.00
2022-12-19T08:03:25.767Z,-4.80
2022-12-19T08:05:52.647Z,-4.70
2022-12-19T08:08:21.210Z,-4.60
2022-12-19T08:10:48.000Z,-4.60
2022-12-19T08:13:14.806Z,-4.30
2022-12-19T08:15:41.576Z,-4.30
2022-12-19T08:18:08.559Z,-4.10
2022-12-19T08:20:35.763Z,-4.00
2022-12-19T08:23:02.563Z,-3.80
2022-12-19T08:25:29.698Z,-3.70
2022-12-19T08:27:56.947Z,-3.60
2022-12-19T08:32:51.970Z,-3.20
2022-12-19T08:35:18.706Z,-3.20
2022-12-19T08:37:46.009Z,-2.80
2022-12-19T08:40:13.035Z,-3.00
2022-12-19T08:42:40.828Z,-2.20
2022-12-19T08:45:08.395Z,-3.00
2022-12-19T08:47:35.679Z,-2.90
2022-12-19T08:50:04.428Z,-3.10
2022-12-19T08:52:31.328Z,-2.90
2022-12-19T08:54:58.095Z,-3.10
2022-12-19T08:57:25.192Z,-3.10
2022-12-19T08:59:51.982Z,-3.20
2022-12-19T09:02:20.131Z,-3.20
2022-12-19T09:05:58.153Z,-3.20
2022-12-19T09:07:38.803Z,-3.20
2022-12-19T09:10:07.243Z,-3.20
2022-12-19T09:12:33.988Z,-3.10
2022-12-19T09:15:00.823Z,-3.10
2022-12-19T09:17:28.966Z,-3.10
2022-12-19T09:19:56.765Z,-3.10
2022-12-19T09:22:23.706Z,-3.10
2022-12-19T09:24:57.961Z,-3.00
2022-12-19T09:27:24.813Z,-2.80
2022-12-19T09:29:52.107Z,-2.70
2022-12-19T09:32:18.907Z,-2.60
2022-12-19T09:34:45.631Z,-2.50
2022-12-19T09:37:16.133Z,-2.30
2022-12-19T09:39:46.350Z,-2.20
2022-12-19T09:42:22.906Z,-1.90
2022-12-19T09:44:56.129Z,-1.90
2022-12-19T09:47:26.762Z,-1.80
2022-12-19T09:49:56.582Z,-1.80
2022-12-19T09:52:37.877Z,-1.80
2022-12-19T09:55:22.533Z,-1.60
2022-12-19T09:58:15.979Z,-1.50
2022-12-19T10:00:47.737Z,-1.50
2022-12-19T10:03:40.270Z,-1.40
2022-12-19T10:07:09.202Z,-1.30
2022-12-19T10:10:10.705Z,-1.10
2022-12-19T10:12:51.439Z,-1.20
2022-12-19T10:15:44.491Z,-1.10
2022-12-19T10:18:56.981Z,-1.00
2022-12-19T10:21:59.526Z,-0.90
2022-12-19T10:24:35.010Z,-0.90
2022-12-19T10:27:13.643Z,-0.80
2022-12-19T10:30:14.896Z,-0.70
2022-12-19T10:33:19.960Z,-0.60
2022-12-19T10:35:57.535Z,-0.60
2022-12-19T10:38:46.311Z,-0.50
2022-12-19T10:41:25.889Z,-0.40
2022-12-19T10:44:07.840Z,-0.20
2022-12-19T10:46:46.714Z,-0.20
2022-12-19T10:49:17.948Z,-0.10
2022-12-19T10:52:02.513Z,-0.10
2022-12-19T10:54:41.818Z,0.10
2022-12-19T10:57:30.071Z,0.20
2022-12-19T11:00:15.676Z,0.20
2022-12-19T11:02:48.640Z,0.40
2022-12-19T11:05:29.605Z,0.50
2022-12-19T11:08:03.450Z,0.60
2022-12-19T11:12:05.296Z,0.70
2022-12-19T11:19:29.680Z,0.80
2022-12-19T11:23:36.077Z,0.90
2022-12-19T11:29:30.549Z,0.90
2022-12-19T11:29:30.747Z,1.10
2022-12-19T11:29:37.372Z,1.10
2022-12-19T11:30:25.738Z,1.20
2022-12-19T11:34:16.706Z,1.40
2022-12-19T11:36:55.143Z,1.50
2022-12-19T11:39:30.179Z,1.50
2022-12-19T11:42:10.230Z,1.50
2022-12-19T11:45:02.949Z,1.40
2022-12-19T11:47:45.727Z,1.50
2022-12-19T11:50:22.304Z,1.40
2022-12-19T11:53:18.563Z,1.40
2022-12-19T11:56:15.833Z,1.40
2022-12-19T11:58:55.376Z,1.20
2022-12-19T12:01:37.840Z,1.20
2022-12-19T12:04:44.646Z,1.10
2022-12-19T12:07:39.037Z,1.20
2022-12-19T12:13:27.120Z,1.10
2022-12-19T12:22:32.894Z,1.10
2022-12-19T12:29:58.634Z,1.20
2022-12-19T12:31:09.514Z,1.10
2022-12-19T12:31:15.791Z,1.10
2022-12-19T12:31:48.722Z,1.10
2022-12-19T12:31:49.685Z,1.00
2022-12-19T12:35:38.053Z,1.20
2022-12-19T12:40:33.020Z,1.20
2022-12-19T12:43:34.554Z,1.20
2022-12-19T12:46:05.102Z,1.20
2022-12-19T12:48:35.767Z,1.20
2022-12-19T12:51:03.999Z,1.30
2022-12-19T12:53:38.387Z,1.30
2022-12-19T12:56:07.844Z,1.20
2022-12-19T12:58:47.014Z,1.40
2022-12-19T13:01:28.998Z,1.30
2022-12-19T13:04:06.049Z,1.40
2022-12-19T13:06:41.298Z,1.40
2022-12-19T13:09:20.382Z,1.50
2022-12-19T13:12:07.314Z,1.30
2022-12-19T13:14:34.212Z,1.30
2022-12-19T13:17:03.467Z,1.30
2022-12-19T13:19:35.345Z,1.30
2022-12-19T13:22:05.270Z,1.30
2022-12-19T13:24:52.600Z,1.30
2022-12-19T13:27:22.408Z,1.30
2022-12-19T13:30:20.137Z,1.40
2022-12-19T13:32:47.012Z,1.20
2022-12-19T13:36:10.821Z,1.00
2022-12-19T13:39:57.475Z,0.90
2022-12-19T13:41:50.199Z,0.90
2022-12-19T13:44:22.799Z,1.10
2022-12-19T13:46:50.213Z,0.90
2022-12-19T13:49:23.421Z,0.90
2022-12-19T13:51:57.292Z,0.90
2022-12-19T13:54:33.119Z,0.90
2022-12-19T13:57:03.887Z,0.70
2022-12-19T13:59:38.965Z,0.80
2022-12-19T14:02:46.596Z,0.70
2022-12-19T14:06:17.831Z,0.70
2022-12-19T14:08:25.412Z,0.60
2022-12-19T14:11:45.500Z,0.70
2022-12-19T14:14:27.640Z,0.70
2022-12-19T14:17:05.601Z,0.70
2022-12-19T14:19:39.381Z,0.70
2022-12-19T14:22:36.005Z,0.70
2022-12-19T14:25:45.227Z,0.50
2022-12-19T14:28:26.023Z,0.50
2022-12-19T14:30:57.550Z,0.50
2022-12-19T14:33:58.403Z,0.50
2022-12-19T14:36:29.779Z,0.60
2022-12-19T14:39:26.576Z,0.70
2022-12-19T14:42:08.719Z,0.70
2022-12-19T14:52:34.498Z,0.90
2022-12-19T14:52:50.940Z,0.90
2022-12-19T14:54:10.588Z,0.90
2022-12-19T14:54:42.092Z,0.80
2022-12-19T14:56:57.672Z,0.90
2022-12-19T14:59:05.602Z,0.90
2022-12-19T15:01:35.171Z,0.90
2022-12-19T15:04:51.681Z,0.90
2022-12-19T15:07:12.347Z,0.80
2022-12-19T15:11:03.269Z,0.80
2022-12-19T15:14:55.228Z,0.70
2022-12-19T15:16:06.243Z,0.60
2022-12-19T15:18:33.131Z,0.40
2022-12-19T15:21:06.374Z,0.50
2022-12-19T15:23:33.408Z,0.40
2022-12-19T15:26:08.173Z,0.60
2022-12-19T15:28:56.830Z,0.50
2022-12-19T15:31:43.078Z,0.50
2022-12-19T15:34:41.867Z,0.60
2022-12-19T15:37:14.590Z,0.60
2022-12-19T15:39:42.649Z,0.40
2022-12-19T15:42:28.280Z,0.40
2022-12-19T15:45:00.193Z,0.40
2022-12-19T15:47:36.024Z,0.30
2022-12-19T15:50:18.699Z,0.40
2022-12-19T15:52:46.906Z,0.50
2022-12-19T15:55:16.804Z,0.50
2022-12-19T15:57:51.674Z,0.50
2022-12-19T16:00:24.547Z,0.50
2022-12-19T16:05:42.234Z,0.60
2022-12-19T16:08:20.676Z,0.80
2022-12-19T16:11:01.107Z,0.80
2022-12-19T16:13:32.022Z,0.90
2022-12-19T16:15:59.490Z,0.90
2022-12-19T16:18:26.385Z,0.90
2022-12-19T16:20:54.983Z,0.90
2022-12-19T16:23:25.524Z,1.00
2022-12-19T16:25:53.945Z,0.90
2022-12-19T16:28:28.963Z,1.00
2022-12-19T16:30:58.162Z,0.90
2022-12-19T16:33:30.415Z,0.90
2022-12-19T16:36:06.583Z,0.90
2022-12-19T16:38:36.293Z,1.00
2022-12-19T16:41:03.779Z,0.90
2022-12-19T16:43:35.932Z,1.00
2022-12-19T16:46:06.562Z,1.00
2022-12-19T16:48:36.105Z,1.00
2022-12-19T16:51:03.370Z,1.00
2022-12-19T16:53:31.210Z,1.00
2022-12-19T16:55:59.983Z,1.10
2022-12-19T16:58:28.768Z,1.10
2022-12-19T17:00:56.261Z,1.00
2022-12-19T17:03:31.911Z,1.00
2022-12-19T17:05:59.157Z,1.10
2022-12-19T17:08:26.313Z,1.00
2022-12-19T17:10:54.465Z,1.00
2022-12-19T17:13:22.465Z,1.00
2022-12-19T17:15:56.375Z,1.00
2022-12-19T17:18:29.119Z,1.20
2022-12-19T17:20:56.464Z,1.20
2022-12-19T17:23:24.815Z,1.20
2022-12-19T17:25:55.257Z,1.20
2022-12-19T17:28:22.728Z,1.20
2022-12-19T17:30:52.903Z,1.20
2022-12-19T17:33:22.632Z,1.20
2022-12-19T17:35:49.372Z,1.30
2022-12-19T17:38:18.113Z,1.30
2022-12-19T17:40:45.262Z,1.30
2022-12-19T17:43:13.440Z,1.40
2022-12-19T17:45:41.006Z,1.30
2022-12-19T17:48:19.886Z,1.30
2022-12-19T17:50:46.744Z,1.30
2022-12-19T17:53:14.687Z,1.30
2022-12-19T17:55:42.452Z,1.20
2022-12-19T17:58:12.420Z,1.20
2022-12-19T18:00:40.885Z,1.20
2022-12-19T18:03:34.236Z,1.20
2022-12-19T18:06:01.165Z,1.30
2022-12-19T18:08:32.426Z,1.30
2022-12-19T18:11:02.985Z,1.30
2022-12-19T18:13:32.227Z,1.90
2022-12-19T18:16:02.746Z,1.30
2022-12-19T18:18:33.482Z,1.30
2022-12-19T18:21:01.346Z,1.50
2022-12-19T18:23:30.455Z,1.40
2022-12-19T18:26:01.880Z,1.30
2022-12-19T18:28:29.579Z,1.30
2022-12-19T18:31:04.325Z,1.40
2022-12-19T18:33:37.681Z,1.30
2022-12-19T18:36:05.901Z,1.20
2022-12-19T18:38:33.007Z,1.20
2022-12-19T18:40:59.868Z,1.20
2022-12-19T18:43:26.827Z,1.30
2022-12-19T18:45:53.967Z,1.20
2022-12-19T18:48:26.409Z,1.20
2022-12-19T18:50:55.834Z,1.10
2022-12-19T18:53:29.824Z,1.10
2022-12-19T18:56:03.036Z,1.10
2022-12-19T18:58:30.241Z,1.20
2022-12-19T19:00:59.777Z,1.20
2022-12-19T19:03:36.491Z,1.20
2022-12-19T19:06:05.962Z,1.30
2022-12-19T19:08:34.468Z,1.30
2022-12-19T19:11:01.675Z,1.30
2022-12-19T19:13:28.586Z,1.40
2022-12-19T19:15:59.110Z,1.40
2022-12-19T19:18:41.666Z,1.40
2022-12-19T19:21:11.253Z,1.40
2022-12-19T19:23:49.027Z,1.50
2022-12-19T19:26:15.954Z,1.50
2022-12-19T19:28:47.053Z,1.60
2022-12-19T19:31:19.865Z,1.80
2022-12-19T19:33:52.053Z,1.40
2022-12-19T19:36:23.192Z,1.50
2022-12-19T19:38:54.873Z,1.60
2022-12-19T19:41:22.801Z,1.60
2022-12-19T19:43:50.052Z,1.90
2022-12-19T19:46:16.979Z,1.70
2022-12-19T19:48:44.416Z,1.80
2022-12-19T19:51:14.627Z,2.00
2022-12-19T19:53:41.424Z,1.90
2022-12-19T19:56:08.261Z,1.80
2022-12-19T19:58:35.259Z,1.90
2022-12-19T20:01:09.027Z,1.80
2022-12-19T20:03:36.495Z,1.80
2022-12-19T20:06:04.019Z,1.80
2022-12-19T20:08:38.756Z,1.90
2022-12-19T20:11:06.487Z,2.50
2022-12-19T20:13:37.330Z,1.90
2022-12-19T20:16:12.518Z,1.90
2022-12-19T20:18:40.337Z,1.80
2022-12-19T20:21:13.132Z,1.80
2022-12-19T20:23:41.102Z,1.80
2022-12-19T20:26:08.315Z,1.80
2022-12-19T20:28:35.542Z,2.00
2022-12-19T20:31:02.747Z,2.00
2022-12-19T20:33:29.797Z,1.90
2022-12-19T20:35:58.352Z,1.90
2022-12-19T20:38:25.417Z,1.90
2022-12-19T20:40:56.097Z,1.70
2022-12-19T20:43:24.517Z,1.70
2022-12-19T20:45:52.162Z,1.70
2022-12-19T20:48:18.965Z,1.80
2022-12-19T20:50:46.270Z,1.90
2022-12-19T20:53:13.125Z,1.90
2022-12-19T20:55:40.145Z,2.00
2022-12-19T20:58:43.477Z,2.00
2022-12-19T21:01:23.228Z,1.90
2022-12-19T21:03:51.621Z,1.90
2022-12-19T21:06:21.376Z,2.00
2022-12-19T21:08:48.724Z,1.90
2022-12-19T21:11:18.821Z,2.00
2022-12-19T21:13:45.855Z,2.10
2022-12-19T21:16:16.091Z,2.10
2022-12-19T21:18:45.061Z,2.30
2022-12-19T21:21:18.217Z,1.90
2022-12-19T21:23:45.660Z,2.00
2022-12-19T21:26:14.787Z,2.00
2022-12-19T21:28:43.765Z,2.00
2022-12-19T21:31:17.093Z,1.90
2022-12-19T21:36:27.678Z,1.90
2022-12-19T21:38:57.617Z,1.80
2022-12-19T21:41:27.320Z,1.90
2022-12-19T21:43:56.655Z,1.80
2022-12-19T21:46:38.317Z,1.80
2022-12-19T21:49:09.120Z,1.80
2022-12-19T21:51:36.326Z,2.00
2022-12-19T21:54:05.507Z,2.40
2022-12-19T21:56:35.461Z,1.90
2022-12-19T21:59:05.459Z,1.90
2022-12-19T22:01:33.293Z,1.90
2022-12-19T22:04:07.604Z,1.80
2022-12-19T22:06:40.679Z,1.80
2022-12-19T22:09:12.094Z,1.90
2022-12-19T22:11:38.885Z,1.90
2022-12-19T22:14:06.955Z,1.90
2022-12-19T22:16:35.011Z,1.90
2022-12-19T22:19:02.307Z,1.80
2022-12-19T22:21:29.132Z,1.70
2022-12-19T22:24:04.090Z,1.70
2022-12-19T22:26:32.626Z,1.70
2022-12-19T22:28:59.533Z,1.80
2022-12-19T22:31:28.171Z,2.00
2022-12-19T22:33:58.271Z,1.70
2022-12-19T22:36:28.659Z,1.70
2022-12-19T22:38:57.021Z,1.70
2022-12-19T22:41:24.431Z,1.70
2022-12-19T22:43:52.300Z,1.70
2022-12-19T22:46:28.740Z,1.70
2022-12-19T22:48:58.293Z,1.80
2022-12-19T22:51:26.660Z,1.80
2022-12-19T22:53:54.710Z,1.80
2022-12-19T22:56:25.754Z,1.80
2022-12-19T22:58:55.372Z,1.80
2022-12-19T23:01:29.525Z,1.90
2022-12-19T23:03:59.422Z,1.90
2022-12-19T23:06:27.971Z,1.70
2022-12-19T23:08:55.163Z,1.70
2022-12-19T23:11:32.320Z,1.70
2022-12-19T23:14:00.557Z,1.70
2022-12-19T23:16:27.877Z,1.70
2022-12-19T23:18:54.738Z,1.70
2022-12-19T23:21:24.158Z,1.80
2022-12-19T23:23:54.155Z,1.80
2022-12-19T23:26:29.624Z,1.80
2022-12-19T23:29:02.485Z,1.80
2022-12-19T23:31:30.204Z,1.80
2022-12-19T23:33:58.904Z,1.90
2022-12-19T23:37:08.479Z,1.90
2022-12-19T23:39:14.869Z,2.00
2022-12-19T23:41:42.119Z,1.90
2022-12-19T23:44:09.862Z,1.90
2022-12-19T23:46:38.183Z,1.90
2022-12-19T23:49:05.136Z,1.90
2022-12-19T23:51:32.367Z,1.90
2022-12-19T23:53:59.613Z,1.80
2022-12-19T23:56:29.799Z,1.70
2022-12-19T23:58:56.654Z,1.70
